Time;durP1;ratioP1;P1;durP2;ratioP2;P2;SDS_P1;SDS_P2;PMS_P1;PMS_P2;Temp;Humidity;BMP_temperature;BMP_pressure;BME280_temperature;BME280_humidity;BME280_pressure;Samples;Min_cycle;Max_cycle;Signal;HPM_P1;HPM_P2
2021/03/13 00:00:51;;;;;;;3.67;1.10;;;7.40;99.90;;;;;;4998377;28;20232;-80
2021/03/13 00:03:18;;;;;;;2.70;0.85;;;7.50;99.90;;;;;;5004844;28;20205;-80
2021/03/13 00:05:46;;;;;;;2.42;0.80;;;7.40;99.90;;;;;;4974257;28;20300;-80
2021/03/13 00:08:14;;;;;;;4.00;1.30;;;7.40;99.90;;;;;;4986803;28;20243;-81
2021/03/13 00:10:41;;;;;;;3.42;1.23;;;7.60;99.90;;;;;;4973365;28;20782;-80
2021/03/13 00:13:08;;;;;;;2.97;0.88;;;7.50;99.90;;;;;;4975097;28;20588;-80
2021/03/13 00:15:36;;;;;;;2.35;0.90;;;7.50;99.90;;;;;;4974493;28;20215;-80
2021/03/13 00:18:04;;;;;;;2.45;0.88;;;7.70;99.90;;;;;;4975756;28;20216;-80
2021/03/13 00:20:32;;;;;;;3.15;1.00;;;7.60;99.90;;;;;;4993727;28;20231;-81
2021/03/13 00:23:00;;;;;;;3.85;1.00;;;7.60;99.90;;;;;;4991715;28;20683;-81
2021/03/13 00:25:29;;;;;;;4.57;1.17;;;7.60;99.90;;;;;;4973996;28;20216;-81
2021/03/13 00:27:56;;;;;;;3.42;0.93;;;7.50;99.90;;;;;;4990700;28;20232;-81
2021/03/13 00:30:24;;;;;;;4.82;1.27;;;7.60;99.90;;;;;;4996897;28;20247;-81
2021/03/13 00:32:52;;;;;;;5.13;1.10;;;7.60;99.90;;;;;;4992923;28;20271;-81
2021/03/13 00:35:19;;;;;;;5.73;1.20;;;7.70;99.90;;;;;;4974077;28;20720;-82
2021/03/13 00:37:46;;;;;;;3.55;0.98;;;7.50;99.90;;;;;;4982364;28;20456;-81
2021/03/13 00:40:15;;;;;;;3.85;1.10;;;7.80;99.90;;;;;;4992988;28;20235;-82
2021/03/13 00:42:43;;;;;;;4.43;0.88;;;7.50;99.90;;;;;;4980465;28;20227;-82
2021/03/13 00:45:12;;;;;;;3.45;1.40;;;7.90;99.90;;;;;;4976195;28;20223;-82
2021/03/13 00:47:38;;;;;;;3.10;1.20;;;7.70;99.90;;;;;;4991244;28;20316;-81
2021/03/13 00:50:06;;;;;;;2.78;0.98;;;7.60;99.90;;;;;;4993801;28;20237;-82
2021/03/13 00:52:33;;;;;;;3.20;1.13;;;7.70;99.90;;;;;;4993978;28;20211;-82
2021/03/13 00:54:59;;;;;;;2.90;0.90;;;7.70;99.90;;;;;;4990815;28;20284;-81
2021/03/13 00:57:26;;;;;;;4.43;1.13;;;7.90;99.90;;;;;;4993228;28;20627;-81
2021/03/13 00:59:53;;;;;;;2.90;0.80;;;7.60;99.90;;;;;;4982900;28;20505;-81
2021/03/13 01:02:20;;;;;;;3.87;1.47;;;7.90;99.90;;;;;;5019889;28;20327;-81
2021/03/13 01:04:46;;;;;;;2.80;1.00;;;8.10;99.90;;;;;;4997013;28;20484;-81
2021/03/13 01:07:13;;;;;;;2.97;0.77;;;7.90;99.90;;;;;;4979615;28;20294;-82
2021/03/13 01:09:39;;;;;;;2.00;0.57;;;7.90;99.90;;;;;;4985217;28;20500;-82
2021/03/13 01:12:06;;;;;;;3.75;0.60;;;8.00;99.90;;;;;;5001244;28;20537;-82
2021/03/13 01:14:33;;;;;;;2.17;0.60;;;8.00;99.90;;;;;;4990950;28;20265;-82
2021/03/13 01:17:00;;;;;;;2.83;0.70;;;7.90;99.90;;;;;;4984154;28;20336;-81
2021/03/13 01:19:27;;;;;;;2.15;0.60;;;7.70;99.90;;;;;;4982355;28;20545;-81
2021/03/13 01:21:53;;;;;;;2.80;0.70;;;7.70;99.90;;;;;;4974170;28;20284;-81
2021/03/13 01:24:20;;;;;;;2.83;1.15;;;7.50;99.90;;;;;;4979776;28;20204;-81
2021/03/13 01:26:46;;;;;;;2.05;0.50;;;7.60;99.90;;;;;;4993740;28;20215;-81
2021/03/13 01:29:13;;;;;;;1.98;0.47;;;7.60;99.90;;;;;;4994278;28;20336;-81
2021/03/13 01:31:39;;;;;;;2.50;0.60;;;7.60;99.90;;;;;;4999148;28;20280;-81
2021/03/13 01:34:06;;;;;;;5.55;0.65;;;7.30;99.90;;;;;;4996544;28;20205;-81
2021/03/13 01:36:33;;;;;;;2.30;0.60;;;7.60;99.90;;;;;;4982831;28;20300;-81
2021/03/13 01:38:59;;;;;;;2.30;0.63;;;7.30;99.90;;;;;;4978539;28;20213;-81
2021/03/13 01:41:26;;;;;;;2.00;0.63;;;7.40;99.90;;;;;;4983600;28;20312;-81
2021/03/13 01:43:52;;;;;;;2.10;0.57;;;7.60;99.90;;;;;;4995098;28;20303;-80
2021/03/13 01:46:19;;;;;;;2.50;0.65;;;7.60;99.90;;;;;;4995345;28;20204;-81
2021/03/13 01:48:49;;;;;;;7.00;0.67;;;7.40;99.90;;;;;;4997739;28;20571;-82
2021/03/13 01:51:16;;;;;;;2.15;0.73;;;7.20;99.90;;;;;;4985675;28;20590;-81
2021/03/13 01:53:43;;;;;;;4.15;1.20;;;7.20;99.90;;;;;;4977844;28;20296;-81
2021/03/13 01:56:10;;;;;;;2.53;0.80;;;7.10;99.90;;;;;;4988500;28;20696;-81
2021/03/13 01:58:36;;;;;;;4.83;0.90;;;7.20;99.90;;;;;;4988089;28;20540;-81
2021/03/13 02:01:06;;;;;;;2.30;0.80;;;7.10;99.90;;;;;;4990122;28;20664;-82
2021/03/13 02:03:32;;;;;;;2.80;0.82;;;7.30;99.90;;;;;;4993567;28;20524;-81
2021/03/13 02:06:00;;;;;;;2.63;0.80;;;7.40;99.90;;;;;;4978564;28;20303;-82
2021/03/13 02:08:37;;;;;;;2.90;0.90;;;7.10;99.90;;;;;;4980359;28;20196;-81
2021/03/13 02:11:11;;;;;;;2.53;0.90;;;7.30;99.90;;;;;;4996021;28;20309;-82
2021/03/13 02:13:45;;;;;;;3.40;1.25;;;7.20;99.90;;;;;;4996801;28;20456;-82
2021/03/13 02:16:22;;;;;;;3.07;0.90;;;7.20;99.90;;;;;;4996663;28;20741;-82
2021/03/13 02:18:58;;;;;;;4.05;2.08;;;7.20;99.90;;;;;;4987212;28;20480;-82
2021/03/13 02:21:28;;;;;;;3.37;1.00;;;7.40;99.90;;;;;;4975282;28;20225;-82
2021/03/13 02:24:19;;;;;;;2.35;0.80;;;7.30;99.90;;;;;;4994734;28;20843;-82
2021/03/13 02:27:07;;;;;;;3.73;1.20;;;7.10;99.90;;;;;;4995158;28;20213;-81
2021/03/13 02:29:45;;;;;;;4.17;1.17;;;7.30;99.90;;;;;;4975241;28;21119;-82
2021/03/13 02:32:19;;;;;;;2.97;0.80;;;7.20;99.90;;;;;;4997624;28;20426;-81
2021/03/13 02:34:48;;;;;;;3.33;0.97;;;7.40;99.90;;;;;;4990100;28;20726;-82
2021/03/13 02:37:19;;;;;;;4.50;1.15;;;7.40;99.90;;;;;;4983882;28;20427;-81
2021/03/13 02:39:47;;;;;;;3.35;1.17;;;7.40;99.90;;;;;;4988866;28;20240;-81
2021/03/13 02:42:14;;;;;;;4.03;1.20;;;7.30;99.90;;;;;;4979581;28;20250;-81
2021/03/13 02:44:45;;;;;;;3.42;1.17;;;7.10;99.90;;;;;;4983934;28;20216;-81
2021/03/13 02:47:12;;;;;;;4.95;1.60;;;7.10;99.90;;;;;;4986688;28;20204;-81
2021/03/13 02:49:43;;;;;;;5.00;1.83;;;7.10;99.90;;;;;;4993225;28;20299;-81
2021/03/13 02:52:10;;;;;;;3.63;1.20;;;7.30;99.90;;;;;;4976017;28;20475;-81
2021/03/13 02:54:38;;;;;;;3.55;0.98;;;7.20;99.90;;;;;;4979637;28;20434;-80
2021/03/13 02:57:07;;;;;;;3.75;1.52;;;7.30;99.90;;;;;;4998094;28;20236;-81
2021/03/13 02:59:37;;;;;;;3.65;1.30;;;7.10;99.90;;;;;;4990717;28;20256;-81
2021/03/13 03:02:05;;;;;;;4.57;1.13;;;7.10;99.90;;;;;;5020990;28;20263;-80
2021/03/13 03:04:34;;;;;;;3.37;1.40;;;7.10;99.90;;;;;;5002787;28;20301;-81
2021/03/13 03:07:00;;;;;;;4.82;1.63;;;7.10;99.90;;;;;;4976819;28;20464;-79
2021/03/13 03:09:28;;;;;;;5.47;1.52;;;7.10;99.90;;;;;;4978968;28;20582;-80
2021/03/13 03:11:55;;;;;;;3.15;1.17;;;7.20;99.90;;;;;;4997612;28;20196;-80
2021/03/13 03:14:23;;;;;;;4.18;1.67;;;7.20;99.90;;;;;;5007937;28;20240;-80
2021/03/13 03:16:53;;;;;;;7.07;1.42;;;7.40;99.90;;;;;;5026466;28;20263;-80
2021/03/13 03:19:22;;;;;;;6.05;3.28;;;7.50;99.90;;;;;;5026595;28;20228;-80
2021/03/13 03:21:48;;;;;;;4.03;1.13;;;7.20;99.90;;;;;;5026213;28;20301;-81
2021/03/13 03:24:15;;;;;;;4.30;1.27;;;7.50;99.90;;;;;;5027430;28;20204;-80
2021/03/13 03:26:49;;;;;;;6.00;1.53;;;7.50;99.90;;;;;;5008130;28;20263;-80
2021/03/13 03:29:17;;;;;;;3.80;1.10;;;7.50;99.90;;;;;;4981762;28;20460;-81
2021/03/13 03:31:43;;;;;;;5.57;1.17;;;7.70;99.90;;;;;;4996668;28;20878;-81
2021/03/13 03:34:10;;;;;;;3.72;1.63;;;7.70;99.90;;;;;;4991452;28;20524;-81
2021/03/13 03:36:37;;;;;;;3.03;1.03;;;7.50;99.90;;;;;;4987275;28;20272;-81
2021/03/13 03:39:04;;;;;;;3.80;1.30;;;7.80;99.90;;;;;;4987951;28;20512;-80
2021/03/13 03:41:33;;;;;;;6.00;1.20;;;7.80;99.90;;;;;;4984545;28;20279;-81
2021/03/13 03:44:03;;;;;;;9.63;1.38;;;8.00;99.90;;;;;;4996017;28;20303;-81
2021/03/13 03:46:33;;;;;;;4.30;1.08;;;7.90;99.90;;;;;;4995013;28;20295;-81
2021/03/13 03:49:03;;;;;;;5.03;1.03;;;7.80;99.90;;;;;;5000478;28;20240;-81
2021/03/13 03:51:30;;;;;;;6.88;1.42;;;7.90;99.90;;;;;;5003017;28;20478;-82
2021/03/13 03:54:00;;;;;;;4.05;1.33;;;7.80;99.90;;;;;;4999059;28;20213;-82
2021/03/13 03:56:27;;;;;;;3.67;1.17;;;8.00;99.90;;;;;;4994862;28;20249;-82
2021/03/13 03:58:54;;;;;;;5.03;1.10;;;8.00;99.90;;;;;;4979958;28;20599;-82
2021/03/13 04:01:23;;;;;;;3.20;1.10;;;7.80;99.90;;;;;;4997213;28;20785;-82
2021/03/13 04:03:53;;;;;;;2.70;0.97;;;8.00;99.90;;;;;;4994415;28;20463;-82
2021/03/13 04:06:20;;;;;;;4.80;1.40;;;8.10;99.90;;;;;;4990259;28;20452;-82
2021/03/13 04:08:50;;;;;;;3.13;0.97;;;8.20;99.90;;;;;;4974791;28;20428;-82
2021/03/13 04:11:19;;;;;;;8.73;2.17;;;8.30;99.90;;;;;;4978169;28;21042;-82
2021/03/13 04:13:47;;;;;;;3.47;1.33;;;8.00;99.90;;;;;;4986791;28;20518;-82
2021/03/13 04:16:14;;;;;;;4.40;1.30;;;8.10;99.90;;;;;;4978349;28;20536;-82
2021/03/13 04:18:41;;;;;;;3.73;1.10;;;8.30;99.90;;;;;;4978761;28;20457;-82
2021/03/13 04:21:08;;;;;;;4.57;1.37;;;8.00;99.90;;;;;;4975428;28;20500;-82
2021/03/13 04:23:37;;;;;;;5.83;2.10;;;8.20;99.90;;;;;;4994038;28;20455;-82
2021/03/13 04:26:05;;;;;;;4.10;0.90;;;8.00;99.90;;;;;;5032666;23;20489;-85
2021/03/13 04:28:32;;;;;;;3.33;1.00;;;8.40;99.90;;;;;;5042403;28;20448;-86
2021/03/13 04:30:59;;;;;;;3.50;0.77;;;8.30;99.90;;;;;;5031995;28;21146;-86
2021/03/13 04:33:25;;;;;;;3.80;1.10;;;8.30;99.90;;;;;;5022686;28;20481;-85
2021/03/13 04:35:53;;;;;;;3.40;1.17;;;8.40;99.90;;;;;;5041769;28;20489;-86
2021/03/13 04:38:21;;;;;;;5.67;1.20;;;8.20;99.90;;;;;;5022900;28;20922;-86
2021/03/13 04:40:49;;;;;;;3.50;0.90;;;8.40;99.90;;;;;;5014468;28;20483;-86
2021/03/13 04:43:16;;;;;;;4.60;0.90;;;8.30;99.90;;;;;;5023104;28;20567;-84
2021/03/13 04:45:45;;;;;;;3.47;1.47;;;8.50;99.90;;;;;;5022933;28;20470;-85
2021/03/13 04:48:12;;;;;;;4.93;1.30;;;8.40;99.90;;;;;;5017909;28;20487;-85
2021/03/13 04:50:39;;;;;;;3.95;1.00;;;8.30;99.90;;;;;;5019654;28;20451;-86
2021/03/13 04:53:06;;;;;;;3.10;0.93;;;8.40;99.90;;;;;;5024804;28;20211;-87
2021/03/13 04:55:32;;;;;;;4.13;1.17;;;8.50;99.90;;;;;;5041934;28;20500;-87
2021/03/13 04:57:58;;;;;;;3.50;0.97;;;8.30;99.90;;;;;;5036359;28;20516;-88
2021/03/13 05:00:25;;;;;;;7.10;1.30;;;8.40;99.90;;;;;;5036885;28;20461;-87
2021/03/13 05:02:52;;;;;;;2.97;1.00;;;8.30;99.90;;;;;;5017219;28;20453;-86
2021/03/13 05:05:19;;;;;;;2.92;0.88;;;8.30;99.90;;;;;;5016626;28;20480;-85
2021/03/13 05:07:45;;;;;;;6.50;1.10;;;8.40;99.90;;;;;;5037232;28;20232;-85
2021/03/13 05:10:12;;;;;;;3.33;0.80;;;8.30;99.90;;;;;;5020376;28;20546;-86
2021/03/13 05:12:38;;;;;;;8.17;1.10;;;8.50;99.90;;;;;;5021123;28;20450;-88
2021/03/13 05:15:08;;;;;;;3.50;0.97;;;8.50;99.90;;;;;;5025124;28;20451;-88
2021/03/13 05:17:34;;;;;;;3.80;1.10;;;8.50;99.90;;;;;;5014287;28;20451;-86
2021/03/13 05:20:01;;;;;;;3.30;0.80;;;8.50;99.90;;;;;;5026616;28;20462;-84
2021/03/13 05:22:28;;;;;;;2.90;1.10;;;8.50;99.90;;;;;;5052443;28;20494;-86
2021/03/13 05:24:54;;;;;;;3.47;0.80;;;8.50;99.90;;;;;;5045705;28;20455;-86
2021/03/13 05:27:20;;;;;;;2.50;0.80;;;8.40;99.90;;;;;;5038407;28;20446;-85
2021/03/13 05:29:47;;;;;;;5.23;0.80;;;8.50;99.90;;;;;;5049057;28;20496;-87
2021/03/13 05:32:13;;;;;;;3.10;0.80;;;8.40;99.90;;;;;;5042378;28;20524;-87
2021/03/13 05:34:39;;;;;;;2.40;0.70;;;8.70;99.90;;;;;;5028391;28;20426;-86
2021/03/13 05:37:07;;;;;;;4.50;1.17;;;8.60;99.90;;;;;;5020658;28;21059;-87
2021/03/13 05:39:33;;;;;;;4.63;0.97;;;8.70;99.90;;;;;;5028555;28;20514;-87
2021/03/13 05:42:01;;;;;;;3.23;0.70;;;8.50;99.90;;;;;;5028978;28;20506;-85
2021/03/13 05:44:28;;;;;;;4.27;1.10;;;8.70;99.90;;;;;;5027358;28;20451;-86
2021/03/13 05:46:55;;;;;;;4.17;1.03;;;8.80;99.90;;;;;;5027616;28;20449;-86
2021/03/13 05:49:23;;;;;;;3.13;0.80;;;8.50;99.90;;;;;;5026232;28;20441;-87
2021/03/13 05:51:49;;;;;;;2.40;0.60;;;8.80;99.90;;;;;;5028680;28;20501;-86
2021/03/13 05:54:18;;;;;;;4.10;1.00;;;8.70;99.90;;;;;;5027752;28;20465;-88
2021/03/13 05:56:45;;;;;;;6.03;0.90;;;8.70;99.90;;;;;;5024032;28;20543;-87
2021/03/13 05:59:12;;;;;;;3.80;1.40;;;8.80;99.90;;;;;;5023925;28;20589;-87
2021/03/13 06:01:40;;;;;;;5.90;0.83;;;9.00;99.90;;;;;;5038853;28;20487;-87
2021/03/13 06:04:06;;;;;;;5.30;0.97;;;9.00;99.90;;;;;;5038555;28;20908;-87
2021/03/13 06:06:37;;;;;;;2.83;0.90;;;8.90;99.90;;;;;;5036817;28;20480;-87
2021/03/13 06:09:04;;;;;;;5.27;0.93;;;9.10;99.90;;;;;;5044770;28;20482;-86
2021/03/13 06:11:32;;;;;;;5.90;1.10;;;9.10;99.90;;;;;;5039622;28;20508;-87
2021/03/13 06:14:00;;;;;;;7.90;1.43;;;9.00;99.90;;;;;;5044746;28;20899;-87
2021/03/13 06:16:27;;;;;;;5.30;0.90;;;9.00;99.90;;;;;;5033667;28;20615;-87
2021/03/13 06:18:56;;;;;;;5.80;1.20;;;9.10;99.90;;;;;;5024869;28;20429;-86
2021/03/13 06:21:24;;;;;;;3.60;0.90;;;8.60;99.90;;;;;;5025575;28;20512;-87
2021/03/13 06:23:56;;;;;;;3.20;1.00;;;8.90;99.90;;;;;;5025761;28;20428;-86
2021/03/13 06:26:23;;;;;;;4.40;1.20;;;8.80;99.90;;;;;;5044841;28;20866;-87
2021/03/13 06:28:52;;;;;;;3.60;0.97;;;9.00;99.90;;;;;;5036688;28;21022;-87
2021/03/13 06:31:23;;;;;;;5.97;1.10;;;9.10;99.90;;;;;;5032091;28;20414;-86
2021/03/13 06:33:50;;;;;;;4.93;1.10;;;9.20;99.90;;;;;;5032850;28;20511;-86
2021/03/13 06:36:24;;;;;;;4.60;1.20;;;8.70;99.90;;;;;;5034476;28;20429;-86
2021/03/13 06:38:51;;;;;;;7.60;1.53;;;9.00;99.90;;;;;;5044686;28;20480;-86
2021/03/13 06:41:19;;;;;;;5.37;1.30;;;9.20;99.90;;;;;;5029653;28;20516;-86
2021/03/13 06:43:47;;;;;;;5.27;1.10;;;9.40;99.90;;;;;;5031463;28;20458;-86
2021/03/13 06:46:16;;;;;;;3.53;1.10;;;9.40;99.90;;;;;;5021483;28;20477;-87
2021/03/13 06:48:44;;;;;;;4.23;0.73;;;9.30;99.90;;;;;;5023023;28;21019;-86
2021/03/13 06:51:29;;;;;;;3.70;1.00;;;9.40;99.90;;;;;;5023283;28;20439;-86
2021/03/13 06:54:08;;;;;;;4.10;1.30;;;9.20;99.90;;;;;;5023427;28;20451;-87
2021/03/13 06:56:37;;;;;;;5.60;1.30;;;9.40;99.90;;;;;;5023270;28;20518;-86
2021/03/13 06:59:17;;;;;;;6.90;1.20;;;9.60;99.90;;;;;;5036578;28;20450;-86
2021/03/13 07:01:44;;;;;;;4.80;1.10;;;9.60;99.90;;;;;;5040958;28;20486;-87
2021/03/13 07:04:12;;;;;;;3.20;1.00;;;9.30;99.90;;;;;;5043021;28;20467;-85
2021/03/13 07:06:45;;;;;;;6.13;1.10;;;9.70;99.90;;;;;;5030720;28;20537;-87
2021/03/13 07:09:11;;;;;;;3.60;1.20;;;9.70;99.90;;;;;;5023100;28;20482;-86
2021/03/13 07:11:38;;;;;;;2.70;0.70;;;9.80;99.90;;;;;;5021555;28;20523;-86
2021/03/13 07:14:05;;;;;;;5.47;1.47;;;9.80;99.90;;;;;;5022362;28;20455;-86
2021/03/13 07:16:34;;;;;;;3.60;1.00;;;9.90;99.90;;;;;;5015833;28;20570;-85
2021/03/13 07:19:04;;;;;;;4.30;0.93;;;10.00;99.90;;;;;;5015440;28;20475;-86
2021/03/13 07:21:32;;;;;;;4.07;1.10;;;10.00;99.90;;;;;;5016090;28;20454;-88
2021/03/13 07:24:03;;;;;;;4.27;1.07;;;10.00;99.90;;;;;;5014956;28;20463;-89
2021/03/13 07:26:36;;;;;;;3.37;1.40;;;10.00;99.90;;;;;;5015020;28;20481;-87
2021/03/13 07:29:04;;;;;;;7.23;1.00;;;10.00;99.90;;;;;;5016389;28;20440;-85
2021/03/13 07:31:34;;;;;;;4.77;1.50;;;10.00;99.90;;;;;;5021167;28;20830;-85
2021/03/13 07:34:04;;;;;;;2.57;0.70;;;10.00;99.90;;;;;;5024816;28;20497;-89
2021/03/13 07:36:36;;;;;;;5.07;1.33;;;10.00;99.90;;;;;;5035700;28;20505;-87
2021/03/13 07:39:09;;;;;;;6.77;1.37;;;10.20;99.90;;;;;;5042481;28;20409;-88
2021/03/13 07:41:37;;;;;;;3.37;1.00;;;10.30;99.90;;;;;;5026296;28;20514;-87
2021/03/13 07:44:06;;;;;;;5.27;1.10;;;10.40;99.90;;;;;;5016544;28;20542;-88
2021/03/13 07:46:34;;;;;;;3.43;0.80;;;10.50;99.90;;;;;;5033742;28;20478;-88
2021/03/13 07:49:01;;;;;;;2.47;0.60;;;10.40;99.90;;;;;;5022806;28;20455;-86
2021/03/13 07:51:29;;;;;;;2.67;0.80;;;10.40;99.90;;;;;;5019677;28;21071;-86
2021/03/13 07:53:56;;;;;;;2.60;0.70;;;10.40;99.90;;;;;;5038341;28;20566;-87
2021/03/13 07:56:24;;;;;;;2.97;0.90;;;10.50;99.90;;;;;;5025280;28;20524;-87
2021/03/13 07:59:10;;;;;;;;;;;;;;;;;;;;;
2021/03/13 08:01:47;;;;;;;2.70;0.70;;;10.70;99.90;;;;;;5005746;28;20559;-84
2021/03/13 08:04:48;;;;;;;4.57;0.83;;;10.70;99.90;;;;;;5002757;28;20434;-84
2021/03/13 08:07:15;;;;;;;4.97;0.63;;;10.70;99.90;;;;;;4998125;28;20444;-87
2021/03/13 08:09:43;;;;;;;2.30;0.70;;;10.70;99.80;;;;;;5016726;28;21083;-86
2021/03/13 08:12:10;;;;;;;3.20;0.90;;;10.70;99.90;;;;;;5020211;28;20547;-87
2021/03/13 08:14:37;;;;;;;4.63;1.00;;;10.70;99.70;;;;;;5006842;28;20462;-87
2021/03/13 08:17:08;;;;;;;3.80;1.03;;;10.70;99.70;;;;;;5020524;28;20556;-86
2021/03/13 08:19:38;;;;;;;2.63;0.77;;;10.60;99.60;;;;;;5030664;28;20429;-83
2021/03/13 08:22:18;;;;;;;3.70;1.00;;;10.60;99.20;;;;;;5033872;28;20457;-83
2021/03/13 08:24:50;;;;;;;3.47;0.97;;;10.60;99.10;;;;;;5031705;28;20442;-82
2021/03/13 08:27:18;;;;;;;3.30;0.70;;;10.70;99.10;;;;;;5041233;28;20528;-83
2021/03/13 08:29:51;;;;;;;3.00;0.77;;;10.60;99.00;;;;;;5020172;28;20944;-82
2021/03/13 08:32:18;;;;;;;3.60;0.93;;;10.60;98.60;;;;;;5016126;28;20496;-80
2021/03/13 08:34:45;;;;;;;3.90;0.73;;;10.50;98.50;;;;;;5014278;28;20458;-78
2021/03/13 08:37:21;;;;;;;3.17;0.97;;;10.50;98.30;;;;;;5050920;28;20520;-80
2021/03/13 08:39:48;;;;;;;3.30;1.00;;;10.50;98.10;;;;;;5027471;28;20447;-83
2021/03/13 08:42:32;;;;;;;5.00;1.30;;;10.50;97.50;;;;;;5035099;28;20482;-81
2021/03/13 08:45:13;;;;;;;3.33;0.77;;;10.60;97.60;;;;;;5003834;28;20539;-79
2021/03/13 08:47:44;;;;;;;5.27;1.00;;;10.70;97.30;;;;;;5000378;28;20430;-79
2021/03/13 08:50:11;;;;;;;2.50;1.00;;;10.90;97.20;;;;;;5011311;28;20530;-79
2021/03/13 08:52:39;;;;;;;5.90;1.00;;;11.20;96.70;;;;;;5014313;28;21121;-79
2021/03/13 08:55:06;;;;;;;3.30;0.80;;;11.30;95.80;;;;;;5001966;28;20425;-79
2021/03/13 08:57:44;;;;;;;2.40;0.70;;;11.40;95.50;;;;;;5023572;28;20956;-78
2021/03/13 09:00:17;;;;;;;3.13;0.60;;;11.40;95.20;;;;;;5026284;28;20433;-78
2021/03/13 09:02:47;;;;;;;3.60;0.80;;;11.40;95.00;;;;;;5005629;28;20915;-78
2021/03/13 09:05:17;;;;;;;4.17;1.30;;;11.50;94.80;;;;;;5018651;28;20449;-79
2021/03/13 09:07:50;;;;;;;6.00;1.00;;;11.50;94.80;;;;;;5026112;28;20453;-79
2021/03/13 09:10:17;;;;;;;2.67;0.80;;;11.40;94.60;;;;;;5028173;28;20461;-79
2021/03/13 09:12:44;;;;;;;3.70;0.83;;;11.50;94.60;;;;;;5018293;28;20481;-83
2021/03/13 09:15:12;;;;;;;4.37;0.93;;;11.50;95.00;;;;;;5017996;28;20514;-84
2021/03/13 09:17:39;;;;;;;4.00;0.90;;;11.40;94.20;;;;;;5026258;28;20466;-86
2021/03/13 09:20:09;;;;;;;4.83;0.80;;;11.50;94.30;;;;;;5024618;28;20532;-86
2021/03/13 09:22:38;;;;;;;3.00;0.70;;;11.60;94.20;;;;;;5018754;28;20574;-87
2021/03/13 09:25:09;;;;;;;4.80;1.00;;;11.70;94.20;;;;;;5005200;28;20955;-87
2021/03/13 09:27:37;;;;;;;3.10;0.90;;;11.80;93.90;;;;;;4996197;28;20427;-87
2021/03/13 09:30:08;;;;;;;2.50;0.70;;;11.80;93.50;;;;;;4997679;28;20441;-87
2021/03/13 09:32:41;;;;;;;5.60;0.73;;;11.90;93.30;;;;;;5005355;28;20425;-85
2021/03/13 09:35:11;;;;;;;5.03;0.93;;;11.90;92.80;;;;;;5000933;28;20501;-86
2021/03/13 09:37:41;;;;;;;3.03;0.90;;;11.90;92.80;;;;;;5007123;28;20479;-87
2021/03/13 09:40:11;;;;;;;4.27;0.90;;;12.00;92.90;;;;;;5002089;28;20480;-87
2021/03/13 09:42:39;;;;;;;3.00;0.97;;;12.10;92.90;;;;;;5016372;28;20449;-87
2021/03/13 09:45:19;;;;;;;3.20;1.07;;;12.10;92.70;;;;;;5017221;28;20474;-88
2021/03/13 09:47:47;;;;;;;3.10;0.83;;;12.10;92.20;;;;;;5023077;28;20437;-88
2021/03/13 09:50:19;;;;;;;6.43;1.53;;;12.20;92.40;;;;;;5021719;28;20433;-86
2021/03/13 09:52:46;;;;;;;2.47;0.87;;;12.20;92.30;;;;;;5025597;28;20418;-87
2021/03/13 09:55:16;;;;;;;2.77;0.90;;;12.30;92.30;;;;;;5025319;28;20549;-85
2021/03/13 09:57:44;;;;;;;5.37;0.97;;;12.30;92.00;;;;;;5025183;28;20540;-87
2021/03/13 10:00:12;;;;;;;2.90;0.97;;;12.30;92.00;;;;;;5007409;28;20437;-87
2021/03/13 10:02:40;;;;;;;4.27;0.93;;;12.40;92.10;;;;;;5006854;28;20469;-87
2021/03/13 10:05:08;;;;;;;2.47;0.80;;;12.40;91.90;;;;;;5003103;28;20473;-88
2021/03/13 10:07:38;;;;;;;3.20;0.90;;;12.40;92.20;;;;;;4999393;28;20513;-86
2021/03/13 10:10:07;;;;;;;3.63;1.40;;;12.50;92.10;;;;;;5001276;28;20499;-86
2021/03/13 10:12:36;;;;;;;4.10;1.30;;;12.50;92.10;;;;;;5019717;28;20497;-86
2021/03/13 10:15:16;;;;;;;4.60;1.10;;;12.50;92.60;;;;;;5022767;28;20689;-85
2021/03/13 10:18:00;;;;;;;3.00;1.20;;;12.50;92.20;;;;;;5018637;28;20439;-85
2021/03/13 10:20:29;;;;;;;2.50;0.80;;;12.50;92.20;;;;;;5018798;28;20928;-86
2021/03/13 10:23:02;;;;;;;2.23;0.60;;;12.40;91.90;;;;;;5019883;28;20489;-87
2021/03/13 10:25:28;;;;;;;4.30;0.80;;;12.40;92.10;;;;;;5033621;22;20953;-80
2021/03/13 10:28:06;;;;;;;4.37;1.10;;;12.20;92.20;;;;;;4965042;28;20439;-78
2021/03/13 10:30:32;;;;;;;2.27;0.67;;;12.20;92.80;;;;;;4956431;28;20456;-78
2021/03/13 10:32:59;;;;;;;4.03;0.90;;;12.20;92.30;;;;;;4956054;29;20624;-79
2021/03/13 10:35:28;;;;;;;4.83;1.00;;;12.20;92.50;;;;;;4955685;28;20464;-79
2021/03/13 10:37:59;;;;;;;4.00;0.90;;;12.20;92.40;;;;;;4955247;29;20468;-78
2021/03/13 10:40:35;;;;;;;2.67;0.70;;;12.30;92.60;;;;;;4956286;29;20464;-79
2021/03/13 10:43:22;;;;;;;2.40;0.70;;;12.30;92.40;;;;;;4958178;28;20496;-79
2021/03/13 10:46:10;;;;;;;3.47;0.70;;;12.20;92.40;;;;;;4956601;28;20456;-78
2021/03/13 10:48:55;;;;;;;3.07;0.70;;;12.20;92.30;;;;;;4956056;29;20453;-79
2021/03/13 10:51:23;;;;;;;3.33;0.83;;;12.30;92.60;;;;;;4955799;28;20477;-79
2021/03/13 10:53:50;;;;;;;2.63;0.80;;;12.20;92.30;;;;;;4956596;28;20805;-79
2021/03/13 10:56:17;;;;;;;2.63;0.67;;;12.20;92.10;;;;;;4955790;28;20574;-78
2021/03/13 10:58:48;;;;;;;3.43;0.93;;;12.20;92.10;;;;;;4953724;29;20464;-78
2021/03/13 11:01:15;;;;;;;2.87;0.90;;;12.20;92.10;;;;;;4968733;28;20865;-78
2021/03/13 11:03:43;;;;;;;2.50;0.80;;;12.20;91.90;;;;;;4961031;28;20544;-79
2021/03/13 11:06:10;;;;;;;4.93;0.97;;;12.10;91.70;;;;;;4954771;28;20462;-79
2021/03/13 11:08:37;;;;;;;3.00;0.93;;;12.10;91.80;;;;;;4955139;29;20502;-79
2021/03/13 11:11:04;;;;;;;2.70;0.70;;;12.10;91.80;;;;;;4955553;29;20489;-78
2021/03/13 11:13:31;;;;;;;3.50;1.10;;;12.20;91.80;;;;;;4957775;29;20428;-80
2021/03/13 11:15:58;;;;;;;3.27;0.73;;;12.30;91.80;;;;;;4958930;28;20481;-79
2021/03/13 11:18:25;;;;;;;5.00;0.80;;;12.30;91.70;;;;;;4958875;28;20763;-79
2021/03/13 11:20:51;;;;;;;4.30;0.70;;;12.30;91.30;;;;;;4956306;29;20508;-80
2021/03/13 11:23:20;;;;;;;2.63;1.17;;;12.40;91.10;;;;;;4956507;29;20509;-80
2021/03/13 11:25:46;;;;;;;2.87;0.80;;;12.40;91.10;;;;;;4956026;28;20931;-79
2021/03/13 11:28:13;;;;;;;5.43;0.67;;;12.30;90.90;;;;;;4951893;28;20524;-79
2021/03/13 11:30:39;;;;;;;3.27;1.07;;;12.40;90.90;;;;;;4974684;28;20529;-80
2021/03/13 11:33:07;;;;;;;2.67;1.17;;;12.50;91.00;;;;;;4961182;28;20500;-80
2021/03/13 11:35:33;;;;;;;2.47;0.70;;;12.60;90.80;;;;;;4956240;28;20536;-80
2021/03/13 11:38:00;;;;;;;2.30;0.67;;;12.60;90.60;;;;;;4956375;29;20469;-79
2021/03/13 11:40:26;;;;;;;2.73;0.97;;;12.60;90.80;;;;;;4956269;29;20416;-79
2021/03/13 11:42:55;;;;;;;2.60;0.60;;;12.70;90.90;;;;;;4955494;29;20835;-79
2021/03/13 11:45:22;;;;;;;3.03;0.80;;;12.70;90.80;;;;;;4956298;28;20483;-79
2021/03/13 11:47:49;;;;;;;2.63;0.80;;;12.70;90.70;;;;;;4959947;28;20443;-79
2021/03/13 11:50:20;;;;;;;3.73;0.90;;;12.80;90.80;;;;;;4956335;29;20535;-80
2021/03/13 11:52:46;;;;;;;3.27;0.60;;;12.80;90.50;;;;;;4960067;28;20424;-80
2021/03/13 11:55:13;;;;;;;3.20;0.70;;;12.80;90.30;;;;;;4955823;28;20432;-79
2021/03/13 11:57:40;;;;;;;2.47;0.57;;;12.90;90.30;;;;;;4954923;28;20484;-78
2021/03/13 12:00:09;;;;;;;2.73;0.70;;;12.90;90.10;;;;;;4953724;29;20461;-78
2021/03/13 12:02:35;;;;;;;4.20;1.10;;;12.90;90.10;;;;;;4953619;29;20542;-78
2021/03/13 12:05:02;;;;;;;4.57;1.20;;;12.90;90.20;;;;;;4960116;28;20903;-78
2021/03/13 12:07:29;;;;;;;2.53;0.97;;;12.80;90.20;;;;;;4973110;28;20455;-78
2021/03/13 12:09:56;;;;;;;4.43;0.97;;;12.70;90.30;;;;;;4973218;28;20498;-79
2021/03/13 12:12:22;;;;;;;2.83;0.70;;;12.80;90.70;;;;;;4972235;28;20445;-78
2021/03/13 12:14:49;;;;;;;1.97;0.50;;;12.80;90.80;;;;;;4972842;28;20527;-79
2021/03/13 12:17:15;;;;;;;4.90;0.83;;;12.80;91.20;;;;;;4972463;28;20467;-78
2021/03/13 12:19:42;;;;;;;3.20;0.73;;;12.60;92.10;;;;;;4968674;28;20659;-78
2021/03/13 12:22:09;;;;;;;2.90;0.97;;;12.50;92.70;;;;;;4953813;29;20837;-78
2021/03/13 12:24:37;;;;;;;2.83;0.90;;;12.50;93.30;;;;;;4953529;29;20474;-79
2021/03/13 12:27:04;;;;;;;3.70;0.90;;;12.50;93.60;;;;;;4959601;28;20494;-79
2021/03/13 12:29:30;;;;;;;3.33;0.70;;;12.50;93.60;;;;;;4955176;28;20902;-78
2021/03/13 12:31:57;;;;;;;4.90;1.00;;;12.40;93.90;;;;;;4953702;28;21164;-79
2021/03/13 12:34:23;;;;;;;2.20;0.67;;;12.30;94.40;;;;;;4953608;28;20519;-78
2021/03/13 12:36:50;;;;;;;5.63;1.50;;;12.30;94.70;;;;;;4959658;28;20622;-80
2021/03/13 12:39:16;;;;;;;2.90;0.93;;;12.40;95.20;;;;;;4972002;28;20435;-79
2021/03/13 12:41:44;;;;;;;4.80;0.93;;;12.60;95.20;;;;;;4972879;28;20459;-78
2021/03/13 12:44:11;;;;;;;2.93;0.60;;;12.40;95.30;;;;;;4973085;28;20462;-78
2021/03/13 12:46:38;;;;;;;3.37;0.90;;;12.40;95.60;;;;;;4973629;28;20450;-80
2021/03/13 12:49:04;;;;;;;2.10;0.60;;;12.50;95.60;;;;;;4967455;28;20490;-79
2021/03/13 12:51:30;;;;;;;2.93;0.70;;;12.50;95.50;;;;;;4961200;28;20525;-79
2021/03/13 12:53:59;;;;;;;3.17;1.10;;;12.40;95.70;;;;;;4972514;28;20449;-79
2021/03/13 12:56:25;;;;;;;4.30;1.20;;;12.40;96.10;;;;;;4967792;28;20456;-79
2021/03/13 12:58:52;;;;;;;3.40;0.93;;;12.40;96.20;;;;;;4952627;29;20439;-79
2021/03/13 13:01:19;;;;;;;2.97;1.30;;;12.40;96.80;;;;;;4952966;29;20544;-79